createdAt,value
2023-08-11T00:02:13.415Z,2.00
2023-08-11T00:04:44.219Z,1.70
2023-08-11T00:07:14.870Z,1.80
2023-08-11T00:09:45.586Z,1.90
2023-08-11T00:12:16.234Z,1.80
2023-08-11T00:14:47.015Z,1.60
2023-08-11T00:17:17.877Z,1.87
2023-08-11T00:19:48.722Z,1.77
2023-08-11T00:22:19.540Z,1.50
2023-08-11T00:24:50.723Z,1.40
2023-08-11T00:27:22.028Z,2.00
2023-08-11T00:29:52.738Z,1.70
2023-08-11T00:32:23.418Z,1.83
2023-08-11T00:34:54.129Z,1.80
2023-08-11T00:37:24.891Z,1.90
2023-08-11T00:39:55.827Z,1.63
2023-08-11T00:42:26.546Z,1.70
2023-08-11T00:44:59.551Z,1.90
2023-08-11T00:47:30.788Z,1.85
2023-08-11T00:50:01.489Z,1.70
2023-08-11T00:52:32.163Z,1.40
2023-08-11T00:55:02.965Z,1.70
2023-08-11T00:57:33.882Z,1.73
2023-08-11T01:00:09.872Z,1.80
2023-08-11T01:02:42.818Z,1.67
2023-08-11T01:05:33.112Z,1.53
2023-08-11T01:08:08.527Z,2.17
2023-08-11T01:10:44.254Z,1.57
2023-08-11T01:13:19.802Z,1.90
2023-08-11T01:15:53.925Z,1.83
2023-08-11T01:18:26.521Z,1.40
2023-08-11T01:20:59.702Z,1.93
2023-08-11T01:23:30.832Z,1.80
2023-08-11T01:26:03.204Z,1.90
2023-08-11T01:28:36.169Z,1.80
2023-08-11T01:31:06.993Z,1.77
2023-08-11T01:33:37.829Z,2.20
2023-08-11T01:36:09.951Z,1.50
2023-08-11T01:38:40.692Z,1.70
2023-08-11T01:41:13.381Z,1.80
2023-08-11T01:43:45.769Z,1.70
2023-08-11T01:46:16.555Z,1.83
2023-08-11T01:48:48.344Z,1.80
2023-08-11T01:51:19.431Z,1.70
2023-08-11T01:53:51.594Z,1.90
2023-08-11T01:56:23.591Z,1.87
2023-08-11T01:58:54.422Z,1.70
2023-08-11T02:01:25.154Z,1.40
2023-08-11T02:03:56.209Z,1.80
2023-08-11T02:06:27.441Z,1.87
2023-08-11T02:08:58.145Z,1.80
2023-08-11T02:11:28.939Z,1.60
2023-08-11T02:13:59.753Z,2.10
2023-08-11T02:16:30.437Z,1.70
2023-08-11T02:19:01.377Z,1.73
2023-08-11T02:21:32.492Z,1.63
2023-08-11T02:24:03.278Z,1.80
2023-08-11T02:26:34.884Z,2.00
2023-08-11T02:29:06.469Z,1.70
2023-08-11T02:31:37.295Z,1.73
2023-08-11T02:34:08.044Z,1.70
2023-08-11T02:36:39.216Z,1.90
2023-08-11T02:39:11.106Z,1.60
2023-08-11T02:41:42.056Z,2.63
2023-08-11T02:44:13.753Z,1.70
2023-08-11T02:46:44.508Z,1.83
2023-08-11T02:49:15.174Z,1.97
2023-08-11T02:51:46.864Z,1.87
2023-08-11T02:54:17.701Z,1.90
2023-08-11T02:56:52.110Z,1.90
2023-08-11T02:59:22.780Z,1.80
2023-08-11T03:01:53.479Z,2.20
2023-08-11T03:04:24.772Z,1.90
2023-08-11T03:06:56.087Z,1.97
2023-08-11T03:09:27.268Z,2.00
2023-08-11T03:11:58.017Z,1.83
2023-08-11T03:14:28.795Z,2.20
2023-08-11T03:17:00.703Z,1.90
2023-08-11T03:19:31.515Z,1.70
2023-08-11T03:22:02.300Z,2.10
2023-08-11T03:24:33.100Z,2.03
2023-08-11T03:27:04.037Z,2.03
2023-08-11T03:29:34.853Z,2.00
2023-08-11T03:32:05.848Z,1.67
2023-08-11T03:34:37.414Z,1.83
2023-08-11T03:37:08.439Z,1.70
2023-08-11T03:39:39.099Z,1.60
2023-08-11T03:42:12.761Z,1.73
2023-08-11T03:44:44.099Z,2.07
2023-08-11T03:47:14.728Z,1.70
2023-08-11T03:49:46.911Z,1.70
2023-08-11T03:52:17.677Z,2.10
2023-08-11T03:54:48.435Z,1.77
2023-08-11T03:57:19.555Z,1.90
2023-08-11T03:59:50.188Z,1.90
2023-08-11T04:02:20.828Z,1.87
2023-08-11T04:04:51.595Z,1.93
2023-08-11T04:07:22.808Z,2.00
2023-08-11T04:09:55.155Z,1.83
2023-08-11T04:12:25.896Z,1.50
2023-08-11T04:14:56.621Z,1.70
2023-08-11T04:17:27.865Z,1.70
2023-08-11T04:19:58.825Z,1.63
2023-08-11T04:22:38.645Z,1.60
2023-08-11T04:25:02.648Z,1.87
2023-08-11T04:27:33.866Z,2.17
2023-08-11T04:30:04.756Z,1.83
2023-08-11T04:32:35.531Z,1.87
2023-08-11T04:35:07.866Z,1.80
2023-08-11T04:37:38.565Z,2.03
2023-08-11T04:40:12.337Z,1.90
2023-08-11T04:42:43.354Z,1.87
2023-08-11T04:45:16.318Z,2.10
2023-08-11T04:47:47.147Z,1.97
2023-08-11T04:50:17.913Z,1.70
2023-08-11T04:52:48.638Z,1.93
2023-08-11T04:55:19.709Z,1.83
2023-08-11T04:57:50.452Z,1.87
2023-08-11T05:00:24.114Z,1.70
2023-08-11T05:02:55.224Z,2.27
2023-08-11T05:05:27.727Z,2.03
2023-08-11T05:07:58.581Z,2.20
2023-08-11T05:10:29.249Z,2.33
2023-08-11T05:13:00.372Z,2.10
2023-08-11T05:15:31.894Z,2.00
2023-08-11T05:18:03.139Z,1.90
2023-08-11T05:20:34.013Z,1.73
2023-08-11T05:23:05.300Z,2.27
2023-08-11T05:25:36.217Z,2.53
2023-08-11T05:28:07.816Z,2.10
2023-08-11T05:30:38.557Z,3.20
2023-08-11T05:33:09.540Z,3.27
2023-08-11T05:35:41.278Z,3.93
2023-08-11T05:38:11.969Z,3.27
2023-08-11T05:40:44.052Z,3.50
2023-08-11T05:43:14.687Z,2.33
2023-08-11T05:45:45.432Z,2.10
2023-08-11T05:48:16.117Z,2.87
2023-08-11T05:50:48.053Z,2.07
2023-08-11T05:53:18.790Z,2.33
2023-08-11T05:55:49.567Z,2.37
2023-08-11T05:58:20.324Z,2.07
2023-08-11T06:00:52.509Z,2.10
2023-08-11T06:03:23.787Z,2.23
2023-08-11T06:05:54.480Z,2.43
2023-08-11T06:08:25.173Z,2.00
2023-08-11T06:10:56.439Z,2.50
2023-08-11T06:13:28.106Z,2.10
2023-08-11T06:15:59.016Z,2.50
2023-08-11T06:18:30.890Z,2.20
2023-08-11T06:21:04.277Z,2.20
2023-08-11T06:23:35.364Z,1.90
2023-08-11T06:26:06.142Z,2.27
2023-08-11T06:28:36.829Z,2.20
2023-08-11T06:31:07.678Z,2.17
2023-08-11T06:33:38.505Z,2.13
2023-08-11T06:36:09.562Z,2.33
2023-08-11T06:38:40.360Z,2.20
2023-08-11T06:41:11.132Z,2.73
2023-08-11T06:43:42.920Z,2.50
2023-08-11T06:46:13.659Z,2.27
2023-08-11T06:48:44.390Z,2.17
2023-08-11T06:51:15.098Z,2.10
2023-08-11T06:53:45.988Z,2.17
2023-08-11T06:56:16.757Z,2.37
2023-08-11T06:58:47.556Z,2.23
2023-08-11T07:01:19.557Z,2.47
2023-08-11T07:03:52.633Z,2.40
2023-08-11T07:06:23.349Z,2.47
2023-08-11T07:08:54.059Z,2.37
2023-08-11T07:11:25.138Z,2.30
2023-08-11T07:13:55.830Z,3.00
2023-08-11T07:16:26.597Z,2.53
2023-08-11T07:18:57.278Z,2.07
2023-08-11T07:21:28.399Z,2.10
2023-08-11T07:23:59.144Z,2.45
2023-08-11T07:26:29.780Z,2.53
2023-08-11T07:29:00.472Z,2.77
2023-08-11T07:31:31.209Z,2.33
2023-08-11T07:34:02.035Z,2.30
2023-08-11T07:36:32.733Z,2.20
2023-08-11T07:39:20.662Z,2.25
2023-08-11T07:41:36.758Z,2.47
2023-08-11T07:44:08.746Z,2.12
2023-08-11T07:46:39.387Z,2.02
2023-08-11T07:49:10.296Z,2.40
2023-08-11T07:51:42.565Z,2.17
2023-08-11T07:54:14.627Z,2.45
2023-08-11T07:56:45.735Z,2.70
2023-08-11T07:59:17.232Z,2.50
2023-08-11T08:01:48.924Z,2.08
2023-08-11T08:04:19.855Z,2.20
2023-08-11T08:06:50.614Z,2.08
2023-08-11T08:09:21.354Z,2.27
2023-08-11T08:11:52.252Z,2.12
2023-08-11T08:14:23.072Z,2.08
2023-08-11T08:16:53.931Z,2.50
2023-08-11T08:19:24.975Z,2.00
2023-08-11T08:21:55.616Z,2.12
2023-08-11T08:24:26.293Z,2.10
2023-08-11T08:26:57.009Z,2.08
2023-08-11T08:29:27.842Z,1.80
2023-08-11T08:31:58.568Z,1.87
2023-08-11T08:34:29.368Z,1.82
2023-08-11T08:37:00.060Z,1.80
2023-08-11T08:39:30.777Z,1.90
2023-08-11T08:42:04.914Z,2.40
2023-08-11T08:44:37.010Z,2.27
2023-08-11T08:47:08.871Z,2.37
2023-08-11T08:49:41.700Z,2.05
2023-08-11T08:52:12.500Z,1.87
2023-08-11T08:54:43.691Z,2.20
2023-08-11T08:57:16.941Z,2.20
2023-08-11T08:59:46.788Z,2.17
2023-08-11T09:02:19.027Z,2.05
2023-08-11T09:04:50.193Z,2.40
2023-08-11T09:07:21.837Z,1.80
2023-08-11T09:09:52.726Z,2.10
2023-08-11T09:12:25.041Z,1.67
2023-08-11T09:14:55.869Z,1.67
2023-08-11T09:17:28.029Z,1.80
2023-08-11T09:19:59.325Z,1.90
2023-08-11T09:22:31.729Z,1.82
2023-08-11T09:25:05.217Z,1.82
2023-08-11T09:27:37.613Z,1.85
2023-08-11T09:30:12.701Z,2.05
2023-08-11T09:32:43.543Z,1.87
2023-08-11T09:35:15.619Z,2.30
2023-08-11T09:37:47.707Z,2.00
2023-08-11T09:40:20.450Z,2.20
2023-08-11T09:42:51.246Z,2.08
2023-08-11T09:45:23.670Z,1.95
2023-08-11T09:47:54.618Z,1.92
2023-08-11T09:50:28.440Z,2.05
2023-08-11T09:53:01.942Z,1.82
2023-08-11T09:55:34.008Z,1.80
2023-08-11T09:58:06.424Z,1.45
2023-08-11T10:00:37.672Z,1.60
2023-08-11T10:03:12.062Z,1.72
2023-08-11T10:05:45.012Z,1.87
2023-08-11T10:08:18.862Z,1.92
2023-08-11T10:10:49.910Z,1.52
2023-08-11T10:13:24.174Z,1.40
2023-08-11T10:15:56.617Z,1.82
2023-08-11T10:18:28.369Z,1.80
2023-08-11T10:21:01.105Z,1.70
2023-08-11T10:23:32.612Z,1.80
2023-08-11T10:26:03.906Z,1.50
2023-08-11T10:28:36.061Z,1.60
2023-08-11T10:31:26.444Z,1.60
2023-08-11T10:33:59.401Z,1.60
2023-08-11T10:36:31.104Z,1.60
2023-08-11T10:39:07.091Z,1.60
2023-08-11T10:41:38.310Z,1.50
2023-08-11T10:44:09.668Z,1.70
2023-08-11T10:46:42.822Z,1.60
2023-08-11T10:49:34.829Z,1.50
2023-08-11T10:52:07.640Z,1.42
2023-08-11T10:54:38.464Z,1.72
2023-08-11T10:57:09.895Z,1.75
2023-08-11T10:59:40.666Z,1.60
2023-08-11T11:02:11.699Z,1.70
2023-08-11T11:04:45.961Z,1.45
2023-08-11T11:07:17.433Z,2.12
2023-08-11T11:09:48.648Z,1.57
2023-08-11T11:12:19.498Z,1.50
2023-08-11T11:14:50.191Z,1.62
2023-08-11T11:17:20.944Z,1.50
2023-08-11T11:19:51.602Z,1.57
2023-08-11T11:22:23.292Z,1.52
2023-08-11T11:24:54.193Z,1.80
2023-08-11T11:27:26.294Z,1.70
2023-08-11T11:30:01.361Z,1.50
2023-08-11T11:32:32.349Z,1.50
2023-08-11T11:35:04.647Z,1.50
2023-08-11T11:37:36.632Z,1.25
2023-08-11T11:40:10.693Z,1.50
2023-08-11T11:42:41.471Z,1.57
2023-08-11T11:45:13.960Z,1.60
2023-08-11T11:47:46.619Z,1.35
2023-08-11T11:50:18.892Z,1.47
2023-08-11T11:52:49.662Z,1.52
2023-08-11T11:55:20.896Z,1.85
2023-08-11T11:57:52.684Z,1.70
2023-08-11T12:00:26.734Z,1.55
2023-08-11T12:02:58.552Z,1.90
2023-08-11T12:05:30.543Z,1.45
2023-08-11T12:08:01.646Z,1.57
2023-08-11T12:10:36.113Z,1.35
2023-08-11T12:13:07.229Z,1.57
2023-08-11T12:15:38.032Z,1.60
2023-08-11T12:18:09.773Z,1.85
2023-08-11T12:20:40.572Z,1.80
2023-08-11T12:23:11.391Z,1.42
2023-08-11T12:25:42.204Z,1.40
2023-08-11T12:28:12.878Z,1.52
2023-08-11T12:30:43.538Z,1.57
2023-08-11T12:33:15.004Z,1.50
2023-08-11T12:35:46.496Z,1.47
2023-08-11T12:38:17.609Z,1.60
2023-08-11T12:40:49.702Z,1.50
2023-08-11T12:43:21.167Z,1.20
2023-08-11T12:45:52.081Z,1.50
2023-08-11T12:48:22.760Z,1.37
2023-08-11T12:50:53.426Z,1.57
2023-08-11T12:53:24.128Z,1.60
2023-08-11T12:55:55.041Z,1.55
2023-08-11T12:58:25.817Z,1.50
2023-08-11T13:00:56.535Z,1.10
2023-08-11T13:03:27.376Z,1.45
2023-08-11T13:05:58.216Z,1.50
2023-08-11T13:08:28.868Z,1.32
2023-08-11T13:10:59.920Z,1.25
2023-08-11T13:13:31.050Z,1.40
2023-08-11T13:16:01.845Z,1.45
2023-08-11T13:18:32.597Z,1.10
2023-08-11T13:21:03.363Z,1.20
2023-08-11T13:23:34.679Z,1.35
2023-08-11T13:26:05.542Z,1.40
2023-08-11T13:28:36.236Z,1.22
2023-08-11T13:31:07.355Z,1.30
2023-08-11T13:33:38.399Z,1.27
2023-08-11T13:36:09.842Z,1.10
2023-08-11T13:38:40.563Z,1.20
2023-08-11T13:41:12.020Z,1.20
2023-08-11T13:43:42.815Z,1.30
2023-08-11T13:46:13.819Z,1.15
2023-08-11T13:48:44.682Z,1.00
2023-08-11T13:51:15.401Z,1.30
2023-08-11T13:53:46.745Z,1.17
2023-08-11T13:56:17.443Z,1.47
2023-08-11T13:58:48.194Z,1.60
2023-08-11T14:01:18.922Z,1.15
2023-08-11T14:03:49.742Z,1.00
2023-08-11T14:06:20.555Z,1.12
2023-08-11T14:08:51.520Z,1.15
2023-08-11T14:11:26.027Z,1.20
2023-08-11T14:13:56.764Z,1.25
2023-08-11T14:16:27.561Z,1.20
2023-08-11T14:18:58.345Z,1.10
2023-08-11T14:21:29.342Z,1.22
2023-08-11T14:24:00.453Z,1.10
2023-08-11T14:26:31.286Z,1.17
2023-08-11T14:29:02.179Z,1.02
2023-08-11T14:31:32.784Z,1.30
2023-08-11T14:34:04.870Z,1.17
2023-08-11T14:36:35.854Z,1.07
2023-08-11T14:39:07.169Z,1.17
2023-08-11T14:41:38.019Z,1.40
2023-08-11T14:44:08.945Z,1.02
2023-08-11T14:49:18.189Z,1.10
2023-08-11T14:51:49.632Z,1.02
2023-08-11T14:54:20.586Z,1.10
2023-08-11T14:56:55.180Z,1.17
2023-08-11T14:59:30.333Z,1.12
2023-08-11T15:02:01.130Z,0.98
2023-08-11T15:04:31.906Z,1.10
2023-08-11T15:07:02.761Z,1.22
2023-08-11T15:09:34.188Z,1.20
2023-08-11T15:12:05.405Z,1.10
2023-08-11T15:14:36.267Z,1.10
2023-08-11T15:17:07.613Z,1.20
2023-08-11T15:19:38.587Z,1.32
2023-08-11T15:22:10.239Z,1.20
2023-08-11T15:24:41.314Z,1.20
2023-08-11T15:27:16.732Z,1.00
2023-08-11T15:29:47.482Z,3.10
2023-08-11T15:32:18.300Z,1.17
2023-08-11T15:34:50.111Z,1.32
2023-08-11T15:37:20.918Z,1.40
2023-08-11T15:39:51.858Z,1.00
2023-08-11T15:42:23.182Z,0.90
2023-08-11T15:44:54.678Z,1.20
2023-08-11T15:47:25.694Z,3.57
2023-08-11T15:49:58.089Z,1.20
2023-08-11T15:52:29.234Z,1.30
2023-08-11T15:55:00.149Z,1.10
2023-08-11T15:57:31.330Z,1.32
2023-08-11T16:00:02.984Z,1.42
2023-08-11T16:02:34.086Z,1.15
2023-08-11T16:05:05.731Z,1.30
2023-08-11T16:07:37.394Z,1.10
2023-08-11T16:10:11.067Z,1.40
2023-08-11T16:12:42.312Z,1.67
2023-08-11T16:15:13.675Z,1.42
2023-08-11T16:17:45.406Z,1.20
2023-08-11T16:20:18.558Z,1.32
2023-08-11T16:22:50.008Z,1.22
2023-08-11T16:25:21.376Z,1.20
2023-08-11T16:27:52.430Z,1.40
2023-08-11T16:30:23.261Z,1.30
2023-08-11T16:32:56.334Z,1.25
2023-08-11T16:35:28.281Z,1.52
2023-08-11T16:37:59.562Z,1.60
2023-08-11T16:40:32.152Z,1.30
2023-08-11T16:43:04.613Z,1.25
2023-08-11T16:45:35.789Z,1.65
2023-08-11T16:48:08.519Z,1.30
2023-08-11T16:50:39.748Z,1.07
2023-08-11T16:53:11.285Z,1.30
2023-08-11T16:55:42.557Z,1.95
2023-08-11T16:58:13.457Z,1.32
2023-08-11T17:00:44.537Z,1.30
2023-08-11T17:03:17.006Z,1.30
2023-08-11T17:05:48.111Z,1.40
2023-08-11T17:08:19.257Z,1.32
2023-08-11T17:10:50.647Z,1.25
2023-08-11T17:13:22.378Z,1.50
2023-08-11T17:15:53.361Z,1.92
2023-08-11T17:18:24.717Z,1.35
2023-08-11T17:20:55.672Z,1.40
2023-08-11T17:23:26.585Z,1.42
2023-08-11T17:25:57.454Z,1.50
2023-08-11T17:28:28.147Z,1.17
2023-08-11T17:31:00.729Z,1.37
2023-08-11T17:33:31.714Z,1.62
2023-08-11T17:36:02.559Z,1.20
2023-08-11T17:38:35.165Z,1.52
2023-08-11T17:41:06.853Z,1.40
2023-08-11T17:43:37.765Z,1.42
2023-08-11T17:46:08.635Z,1.52
2023-08-11T17:48:39.523Z,1.37
2023-08-11T17:51:11.152Z,1.10
2023-08-11T17:53:42.632Z,1.27
2023-08-11T17:56:14.523Z,1.50
2023-08-11T17:58:45.278Z,1.50
2023-08-11T18:01:16.002Z,1.35
2023-08-11T18:03:46.893Z,1.50
2023-08-11T18:06:17.584Z,1.50
2023-08-11T18:08:48.368Z,1.32
2023-08-11T18:11:19.110Z,1.25
2023-08-11T18:13:49.913Z,1.35
2023-08-11T18:16:20.610Z,1.47
2023-08-11T18:18:51.311Z,1.35
2023-08-11T18:21:22.139Z,1.50
2023-08-11T18:23:53.058Z,1.32
2023-08-11T18:26:23.734Z,1.30
2023-08-11T18:28:54.385Z,1.42
2023-08-11T18:31:25.323Z,1.20
2023-08-11T18:33:58.131Z,1.67
2023-08-11T18:36:29.152Z,1.57
2023-08-11T18:39:00.149Z,1.32
2023-08-11T18:41:30.928Z,1.32
2023-08-11T18:44:02.064Z,1.30
2023-08-11T18:46:35.421Z,1.50
2023-08-11T18:49:07.712Z,1.22
2023-08-11T18:51:39.117Z,1.52
2023-08-11T18:54:10.544Z,1.40
2023-08-11T18:56:43.575Z,1.37
2023-08-11T18:59:14.869Z,1.40
2023-08-11T19:01:45.756Z,1.57
2023-08-11T19:04:16.553Z,1.35
2023-08-11T19:06:47.382Z,1.32
2023-08-11T19:09:18.576Z,1.70
2023-08-11T19:11:49.329Z,1.60
2023-08-11T19:14:20.036Z,1.60
2023-08-11T19:16:52.573Z,1.40
2023-08-11T19:19:23.398Z,1.50
2023-08-11T19:21:55.769Z,1.60
2023-08-11T19:24:27.094Z,1.20
2023-08-11T19:26:58.205Z,1.60
2023-08-11T19:29:29.333Z,1.20
2023-08-11T19:32:00.272Z,1.77
2023-08-11T19:34:31.140Z,1.70
2023-08-11T19:37:01.958Z,1.60
2023-08-11T19:39:33.028Z,1.30
2023-08-11T19:42:04.386Z,1.40
2023-08-11T19:44:35.615Z,1.67
2023-08-11T19:47:06.603Z,1.40
2023-08-11T19:49:37.984Z,1.32
2023-08-11T19:54:47.574Z,1.60
2023-08-11T19:57:19.027Z,1.62
2023-08-11T19:59:49.899Z,1.75
2023-08-11T20:02:21.190Z,1.35
2023-08-11T20:04:53.858Z,1.57
2023-08-11T20:07:24.963Z,1.27
2023-08-11T20:09:55.779Z,1.12
2023-08-11T20:12:26.546Z,1.40
2023-08-11T20:14:57.311Z,2.22
2023-08-11T20:17:29.061Z,1.50
2023-08-11T20:19:59.811Z,1.50
2023-08-11T20:22:30.648Z,1.50
2023-08-11T20:25:02.303Z,1.27
2023-08-11T20:27:32.993Z,1.32
2023-08-11T20:30:04.042Z,1.60
2023-08-11T20:32:34.797Z,1.40
2023-08-11T20:35:05.900Z,1.35
2023-08-11T20:37:37.140Z,1.05
2023-08-11T20:40:10.503Z,1.62
2023-08-11T20:42:41.275Z,1.32
2023-08-11T20:45:12.981Z,1.40
2023-08-11T20:47:43.672Z,1.50
2023-08-11T20:50:14.650Z,1.57
2023-08-11T20:52:45.342Z,1.35
2023-08-11T20:55:16.315Z,1.57
2023-08-11T20:57:47.023Z,1.40
2023-08-11T21:00:18.885Z,1.30
2023-08-11T21:02:49.533Z,1.45
2023-08-11T21:05:20.497Z,1.67
2023-08-11T21:07:51.187Z,1.37
2023-08-11T21:10:22.228Z,1.20
2023-08-11T21:12:52.842Z,1.37
2023-08-11T21:15:24.123Z,1.30
2023-08-11T21:17:55.039Z,1.40
2023-08-11T21:20:25.888Z,1.40
2023-08-11T21:22:56.531Z,1.20
2023-08-11T21:25:27.329Z,1.40
2023-08-11T21:27:58.049Z,1.50
2023-08-11T21:30:28.678Z,1.50
2023-08-11T21:32:59.419Z,1.40
2023-08-11T21:35:30.253Z,1.40
2023-08-11T21:38:01.033Z,1.47
2023-08-11T21:40:31.798Z,1.60
2023-08-11T21:43:02.518Z,1.63
2023-08-11T21:45:33.359Z,1.57
2023-08-11T21:48:04.046Z,1.55
2023-08-11T21:50:34.721Z,1.80
2023-08-11T21:53:21.263Z,1.60
2023-08-11T21:55:37.823Z,1.60
2023-08-11T21:58:08.545Z,1.60
2023-08-11T22:00:41.466Z,1.70
2023-08-11T22:03:12.323Z,1.67
2023-08-11T22:05:43.984Z,1.60
2023-08-11T22:08:15.132Z,1.87
2023-08-11T22:10:46.331Z,1.80
2023-08-11T22:13:17.186Z,1.82
2023-08-11T22:15:48.647Z,2.00
2023-08-11T22:18:19.312Z,1.72
2023-08-11T22:20:50.069Z,1.80
2023-08-11T22:23:20.784Z,1.77
2023-08-11T22:25:51.409Z,2.00
2023-08-11T22:28:22.086Z,2.08
2023-08-11T22:30:52.825Z,1.47
2023-08-11T22:33:23.488Z,2.00
2023-08-11T22:35:54.149Z,1.95
2023-08-11T22:38:24.865Z,1.60
2023-08-11T22:40:55.860Z,2.00
2023-08-11T22:43:27.999Z,2.00
2023-08-11T22:45:58.691Z,1.92
2023-08-11T22:48:29.426Z,2.22
2023-08-11T22:51:00.164Z,1.90
2023-08-11T22:53:31.019Z,1.90
2023-08-11T22:56:01.800Z,1.83
2023-08-11T22:58:32.522Z,2.17
2023-08-11T23:01:03.319Z,2.00
2023-08-11T23:03:33.937Z,1.82
2023-08-11T23:06:04.691Z,1.77
2023-08-11T23:08:35.364Z,1.92
2023-08-11T23:11:06.051Z,2.07
2023-08-11T23:13:36.787Z,2.15
2023-08-11T23:16:07.726Z,2.10
2023-08-11T23:18:38.566Z,1.97
2023-08-11T23:21:09.710Z,1.95
2023-08-11T23:23:40.342Z,2.10
2023-08-11T23:26:11.024Z,2.10
2023-08-11T23:28:41.768Z,2.17
2023-08-11T23:31:12.724Z,2.20
2023-08-11T23:33:43.580Z,2.20
2023-08-11T23:36:14.211Z,1.98
2023-08-11T23:38:44.893Z,2.17
2023-08-11T23:41:15.672Z,2.20
2023-08-11T23:43:46.935Z,2.03
2023-08-11T23:46:17.630Z,2.00
2023-08-11T23:48:48.337Z,1.87
2023-08-11T23:51:19.438Z,2.17
2023-08-11T23:53:50.454Z,2.10
2023-08-11T23:56:21.633Z,2.17
2023-08-11T23:58:52.390Z,1.92
